sensor_id;sensor_type;location;lat;lon;timestamp;P1;durP1;ratioP1;P2;durP2;ratioP2
3647;SDS011;1840;48.892;15.312;2023-06-26T00:01:55;12.97;;;8.17;;
3647;SDS011;1840;48.892;15.312;2023-06-26T00:04:24;15.60;;;8.67;;
3647;SDS011;1840;48.892;15.312;2023-06-26T00:06:51;14.27;;;8.10;;
3647;SDS011;1840;48.892;15.312;2023-06-26T00:09:22;13.93;;;9.43;;
3647;SDS011;1840;48.892;15.312;2023-06-26T00:11:50;11.83;;;8.33;;
3647;SDS011;1840;48.892;15.312;2023-06-26T00:14:18;11.50;;;8.27;;
3647;SDS011;1840;48.892;15.312;2023-06-26T00:16:47;16.83;;;9.27;;
3647;SDS011;1840;48.892;15.312;2023-06-26T00:19:17;14.10;;;8.93;;
3647;SDS011;1840;48.892;15.312;2023-06-26T00:21:45;16.43;;;9.30;;
3647;SDS011;1840;48.892;15.312;2023-06-26T00:24:14;14.97;;;8.90;;
3647;SDS011;1840;48.892;15.312;2023-06-26T00:26:42;12.80;;;8.87;;
3647;SDS011;1840;48.892;15.312;2023-06-26T00:29:10;10.97;;;7.90;;
3647;SDS011;1840;48.892;15.312;2023-06-26T00:31:38;16.90;;;9.00;;
3647;SDS011;1840;48.892;15.312;2023-06-26T00:34:07;15.33;;;8.37;;
3647;SDS011;1840;48.892;15.312;2023-06-26T00:36:36;13.57;;;9.30;;
3647;SDS011;1840;48.892;15.312;2023-06-26T00:39:04;21.80;;;9.33;;
3647;SDS011;1840;48.892;15.312;2023-06-26T00:41:32;15.67;;;8.97;;
3647;SDS011;1840;48.892;15.312;2023-06-26T00:44:00;14.13;;;8.90;;
3647;SDS011;1840;48.892;15.312;2023-06-26T00:46:28;12.47;;;9.10;;
3647;SDS011;1840;48.892;15.312;2023-06-26T00:48:57;16.53;;;9.60;;
3647;SDS011;1840;48.892;15.312;2023-06-26T00:51:27;12.47;;;8.00;;
3647;SDS011;1840;48.892;15.312;2023-06-26T00:53:57;12.00;;;8.83;;
3647;SDS011;1840;48.892;15.312;2023-06-26T00:56:26;24.13;;;9.80;;
3647;SDS011;1840;48.892;15.312;2023-06-26T00:58:54;10.77;;;7.87;;
3647;SDS011;1840;48.892;15.312;2023-06-26T01:01:23;14.90;;;7.90;;
3647;SDS011;1840;48.892;15.312;2023-06-26T01:03:52;12.80;;;8.60;;
3647;SDS011;1840;48.892;15.312;2023-06-26T01:06:21;20.20;;;8.60;;
3647;SDS011;1840;48.892;15.312;2023-06-26T01:08:51;11.57;;;8.00;;
3647;SDS011;1840;48.892;15.312;2023-06-26T01:11:21;12.07;;;8.60;;
3647;SDS011;1840;48.892;15.312;2023-06-26T01:13:51;14.63;;;8.13;;
3647;SDS011;1840;48.892;15.312;2023-06-26T01:16:20;12.70;;;7.93;;
3647;SDS011;1840;48.892;15.312;2023-06-26T01:18:53;10.57;;;8.17;;
3647;SDS011;1840;48.892;15.312;2023-06-26T01:21:21;13.23;;;8.80;;
3647;SDS011;1840;48.892;15.312;2023-06-26T01:23:58;11.43;;;8.23;;
3647;SDS011;1840;48.892;15.312;2023-06-26T01:26:38;10.87;;;7.57;;
3647;SDS011;1840;48.892;15.312;2023-06-26T01:29:09;17.23;;;9.30;;
3647;SDS011;1840;48.892;15.312;2023-06-26T01:31:37;15.20;;;7.43;;
3647;SDS011;1840;48.892;15.312;2023-06-26T01:34:07;14.37;;;8.80;;
3647;SDS011;1840;48.892;15.312;2023-06-26T01:36:35;10.77;;;7.63;;
3647;SDS011;1840;48.892;15.312;2023-06-26T01:39:04;15.30;;;8.60;;
3647;SDS011;1840;48.892;15.312;2023-06-26T01:41:32;15.97;;;8.10;;
3647;SDS011;1840;48.892;15.312;2023-06-26T01:44:14;14.80;;;8.83;;
3647;SDS011;1840;48.892;15.312;2023-06-26T01:46:53;14.33;;;8.67;;
3647;SDS011;1840;48.892;15.312;2023-06-26T01:49:31;10.17;;;7.37;;
3647;SDS011;1840;48.892;15.312;2023-06-26T01:52:07;13.50;;;8.60;;
3647;SDS011;1840;48.892;15.312;2023-06-26T01:54:42;14.27;;;9.80;;
3647;SDS011;1840;48.892;15.312;2023-06-26T01:57:16;16.63;;;10.67;;
3647;SDS011;1840;48.892;15.312;2023-06-26T01:59:47;14.33;;;9.07;;
3647;SDS011;1840;48.892;15.312;2023-06-26T02:02:16;14.50;;;9.60;;
3647;SDS011;1840;48.892;15.312;2023-06-26T02:04:44;19.83;;;8.20;;
3647;SDS011;1840;48.892;15.312;2023-06-26T02:07:14;16.97;;;8.60;;
3647;SDS011;1840;48.892;15.312;2023-06-26T02:09:42;14.57;;;8.50;;
3647;SDS011;1840;48.892;15.312;2023-06-26T02:12:10;10.33;;;7.67;;
3647;SDS011;1840;48.892;15.312;2023-06-26T02:14:39;16.33;;;9.37;;
3647;SDS011;1840;48.892;15.312;2023-06-26T02:17:08;15.57;;;10.60;;
3647;SDS011;1840;48.892;15.312;2023-06-26T02:19:36;15.63;;;10.10;;
3647;SDS011;1840;48.892;15.312;2023-06-26T02:22:11;13.77;;;9.53;;
3647;SDS011;1840;48.892;15.312;2023-06-26T02:24:42;20.27;;;10.30;;
3647;SDS011;1840;48.892;15.312;2023-06-26T02:27:10;17.57;;;11.20;;
3647;SDS011;1840;48.892;15.312;2023-06-26T02:29:39;20.53;;;10.40;;
3647;SDS011;1840;48.892;15.312;2023-06-26T02:32:09;13.07;;;9.13;;
3647;SDS011;1840;48.892;15.312;2023-06-26T02:34:37;12.43;;;8.97;;
3647;SDS011;1840;48.892;15.312;2023-06-26T02:37:05;29.27;;;10.33;;
3647;SDS011;1840;48.892;15.312;2023-06-26T02:39:34;19.23;;;11.47;;
3647;SDS011;1840;48.892;15.312;2023-06-26T02:42:02;18.90;;;10.90;;
3647;SDS011;1840;48.892;15.312;2023-06-26T02:44:30;18.70;;;10.20;;
3647;SDS011;1840;48.892;15.312;2023-06-26T02:46:59;13.40;;;8.87;;
3647;SDS011;1840;48.892;15.312;2023-06-26T02:49:28;14.50;;;9.20;;
3647;SDS011;1840;48.892;15.312;2023-06-26T02:51:57;14.97;;;9.77;;
3647;SDS011;1840;48.892;15.312;2023-06-26T02:54:49;18.93;;;9.67;;
3647;SDS011;1840;48.892;15.312;2023-06-26T02:57:20;15.30;;;9.27;;
3647;SDS011;1840;48.892;15.312;2023-06-26T02:59:48;17.87;;;9.00;;
3647;SDS011;1840;48.892;15.312;2023-06-26T03:02:40;14.73;;;8.63;;
3647;SDS011;1840;48.892;15.312;2023-06-26T03:05:10;14.57;;;8.50;;
3647;SDS011;1840;48.892;15.312;2023-06-26T03:08:03;15.27;;;9.60;;
3647;SDS011;1840;48.892;15.312;2023-06-26T03:10:34;19.37;;;8.97;;
3647;SDS011;1840;48.892;15.312;2023-06-26T03:13:03;20.73;;;8.20;;
3647;SDS011;1840;48.892;15.312;2023-06-26T03:15:31;12.17;;;9.03;;
3647;SDS011;1840;48.892;15.312;2023-06-26T03:17:59;12.50;;;7.27;;
3647;SDS011;1840;48.892;15.312;2023-06-26T03:20:29;13.60;;;8.47;;
3647;SDS011;1840;48.892;15.312;2023-06-26T03:22:57;11.57;;;7.93;;
3647;SDS011;1840;48.892;15.312;2023-06-26T03:25:25;11.63;;;8.30;;
3647;SDS011;1840;48.892;15.312;2023-06-26T03:27:53;16.17;;;9.00;;
3647;SDS011;1840;48.892;15.312;2023-06-26T03:30:21;20.47;;;8.80;;
3647;SDS011;1840;48.892;15.312;2023-06-26T03:32:49;18.80;;;11.23;;
3647;SDS011;1840;48.892;15.312;2023-06-26T03:35:17;30.50;;;10.17;;
3647;SDS011;1840;48.892;15.312;2023-06-26T03:37:48;14.40;;;8.63;;
3647;SDS011;1840;48.892;15.312;2023-06-26T03:40:16;13.67;;;8.40;;
3647;SDS011;1840;48.892;15.312;2023-06-26T03:42:44;12.43;;;7.80;;
3647;SDS011;1840;48.892;15.312;2023-06-26T03:45:12;18.00;;;8.47;;
3647;SDS011;1840;48.892;15.312;2023-06-26T03:47:40;13.03;;;8.30;;
3647;SDS011;1840;48.892;15.312;2023-06-26T03:50:09;12.37;;;8.70;;
3647;SDS011;1840;48.892;15.312;2023-06-26T03:52:37;11.30;;;7.80;;
3647;SDS011;1840;48.892;15.312;2023-06-26T03:55:07;11.53;;;7.73;;
3647;SDS011;1840;48.892;15.312;2023-06-26T03:57:35;17.97;;;8.50;;
3647;SDS011;1840;48.892;15.312;2023-06-26T04:00:03;12.07;;;8.80;;
3647;SDS011;1840;48.892;15.312;2023-06-26T04:02:35;15.10;;;9.07;;
3647;SDS011;1840;48.892;15.312;2023-06-26T04:05:03;15.10;;;9.07;;
3647;SDS011;1840;48.892;15.312;2023-06-26T04:07:31;12.13;;;8.40;;
3647;SDS011;1840;48.892;15.312;2023-06-26T04:10:00;17.50;;;8.60;;
3647;SDS011;1840;48.892;15.312;2023-06-26T04:12:30;15.37;;;8.77;;
3647;SDS011;1840;48.892;15.312;2023-06-26T04:14:58;15.53;;;10.10;;
3647;SDS011;1840;48.892;15.312;2023-06-26T04:17:26;14.60;;;9.90;;
3647;SDS011;1840;48.892;15.312;2023-06-26T04:19:55;17.63;;;9.50;;
3647;SDS011;1840;48.892;15.312;2023-06-26T04:22:23;32.40;;;13.00;;
3647;SDS011;1840;48.892;15.312;2023-06-26T04:24:51;28.63;;;10.77;;
3647;SDS011;1840;48.892;15.312;2023-06-26T04:27:19;19.17;;;11.67;;
3647;SDS011;1840;48.892;15.312;2023-06-26T04:29:49;20.93;;;10.70;;
3647;SDS011;1840;48.892;15.312;2023-06-26T04:32:17;17.27;;;12.27;;
3647;SDS011;1840;48.892;15.312;2023-06-26T04:34:45;16.00;;;10.37;;
3647;SDS011;1840;48.892;15.312;2023-06-26T04:37:14;17.70;;;11.87;;
3647;SDS011;1840;48.892;15.312;2023-06-26T04:39:43;16.23;;;11.70;;
3647;SDS011;1840;48.892;15.312;2023-06-26T04:42:11;17.30;;;11.97;;
3647;SDS011;1840;48.892;15.312;2023-06-26T04:44:39;15.90;;;11.03;;
3647;SDS011;1840;48.892;15.312;2023-06-26T04:47:09;19.60;;;11.40;;
3647;SDS011;1840;48.892;15.312;2023-06-26T04:49:37;22.57;;;13.90;;
3647;SDS011;1840;48.892;15.312;2023-06-26T04:52:12;18.30;;;12.67;;
3647;SDS011;1840;48.892;15.312;2023-06-26T04:54:40;21.17;;;13.20;;
3647;SDS011;1840;48.892;15.312;2023-06-26T04:57:08;19.53;;;12.50;;
3647;SDS011;1840;48.892;15.312;2023-06-26T04:59:38;27.73;;;12.90;;
3647;SDS011;1840;48.892;15.312;2023-06-26T05:02:06;28.70;;;13.60;;
3647;SDS011;1840;48.892;15.312;2023-06-26T05:04:36;17.40;;;11.90;;
3647;SDS011;1840;48.892;15.312;2023-06-26T05:07:04;17.40;;;11.63;;
3647;SDS011;1840;48.892;15.312;2023-06-26T05:09:32;22.30;;;13.60;;
3647;SDS011;1840;48.892;15.312;2023-06-26T05:12:00;19.93;;;14.13;;
3647;SDS011;1840;48.892;15.312;2023-06-26T05:14:30;26.40;;;15.13;;
3647;SDS011;1840;48.892;15.312;2023-06-26T05:16:58;20.63;;;13.83;;
3647;SDS011;1840;48.892;15.312;2023-06-26T05:19:26;18.67;;;13.83;;
3647;SDS011;1840;48.892;15.312;2023-06-26T05:21:55;22.33;;;14.40;;
3647;SDS011;1840;48.892;15.312;2023-06-26T05:24:24;22.43;;;14.90;;
3647;SDS011;1840;48.892;15.312;2023-06-26T05:26:52;20.20;;;14.47;;
3647;SDS011;1840;48.892;15.312;2023-06-26T05:29:21;18.83;;;14.20;;
3647;SDS011;1840;48.892;15.312;2023-06-26T05:31:49;29.23;;;14.90;;
3647;SDS011;1840;48.892;15.312;2023-06-26T05:34:20;21.57;;;12.93;;
3647;SDS011;1840;48.892;15.312;2023-06-26T05:36:52;20.80;;;13.30;;
3647;SDS011;1840;48.892;15.312;2023-06-26T05:39:24;19.90;;;14.30;;
3647;SDS011;1840;48.892;15.312;2023-06-26T05:41:53;19.10;;;12.40;;
3647;SDS011;1840;48.892;15.312;2023-06-26T05:44:21;18.87;;;13.27;;
3647;SDS011;1840;48.892;15.312;2023-06-26T05:46:49;20.07;;;13.70;;
3647;SDS011;1840;48.892;15.312;2023-06-26T05:49:18;22.40;;;12.17;;
3647;SDS011;1840;48.892;15.312;2023-06-26T05:51:46;19.63;;;11.93;;
3647;SDS011;1840;48.892;15.312;2023-06-26T05:54:15;18.87;;;11.97;;
3647;SDS011;1840;48.892;15.312;2023-06-26T05:56:44;18.20;;;11.70;;
3647;SDS011;1840;48.892;15.312;2023-06-26T05:59:13;15.50;;;10.87;;
3647;SDS011;1840;48.892;15.312;2023-06-26T06:01:42;18.87;;;10.17;;
3647;SDS011;1840;48.892;15.312;2023-06-26T06:04:10;18.00;;;11.53;;
3647;SDS011;1840;48.892;15.312;2023-06-26T06:06:39;21.73;;;12.77;;
3647;SDS011;1840;48.892;15.312;2023-06-26T06:09:07;31.73;;;12.17;;
3647;SDS011;1840;48.892;15.312;2023-06-26T06:11:35;19.70;;;11.80;;
3647;SDS011;1840;48.892;15.312;2023-06-26T06:14:04;21.60;;;9.90;;
3647;SDS011;1840;48.892;15.312;2023-06-26T06:16:36;21.87;;;12.00;;
3647;SDS011;1840;48.892;15.312;2023-06-26T06:19:04;16.50;;;10.70;;
3647;SDS011;1840;48.892;15.312;2023-06-26T06:21:34;15.33;;;10.20;;
3647;SDS011;1840;48.892;15.312;2023-06-26T06:24:02;14.93;;;10.27;;
3647;SDS011;1840;48.892;15.312;2023-06-26T06:26:30;13.93;;;8.60;;
3647;SDS011;1840;48.892;15.312;2023-06-26T06:28:58;13.80;;;9.47;;
3647;SDS011;1840;48.892;15.312;2023-06-26T06:31:27;12.80;;;9.90;;
3647;SDS011;1840;48.892;15.312;2023-06-26T06:33:55;17.23;;;10.30;;
3647;SDS011;1840;48.892;15.312;2023-06-26T06:36:24;17.13;;;10.37;;
3647;SDS011;1840;48.892;15.312;2023-06-26T06:38:52;17.27;;;11.50;;
3647;SDS011;1840;48.892;15.312;2023-06-26T06:41:20;21.07;;;11.60;;
3647;SDS011;1840;48.892;15.312;2023-06-26T06:43:48;14.17;;;9.90;;
3647;SDS011;1840;48.892;15.312;2023-06-26T06:46:16;21.50;;;10.33;;
3647;SDS011;1840;48.892;15.312;2023-06-26T06:49:10;26.20;;;10.87;;
3647;SDS011;1840;48.892;15.312;2023-06-26T06:51:40;14.37;;;8.60;;
3647;SDS011;1840;48.892;15.312;2023-06-26T06:54:08;15.47;;;9.60;;
3647;SDS011;1840;48.892;15.312;2023-06-26T06:56:36;18.00;;;8.53;;
3647;SDS011;1840;48.892;15.312;2023-06-26T06:59:04;12.97;;;7.40;;
3647;SDS011;1840;48.892;15.312;2023-06-26T07:01:32;13.07;;;7.80;;
3647;SDS011;1840;48.892;15.312;2023-06-26T07:04:01;17.10;;;9.33;;
3647;SDS011;1840;48.892;15.312;2023-06-26T07:06:31;32.20;;;8.90;;
3647;SDS011;1840;48.892;15.312;2023-06-26T07:09:00;15.93;;;8.83;;
3647;SDS011;1840;48.892;15.312;2023-06-26T07:11:29;15.60;;;8.67;;
3647;SDS011;1840;48.892;15.312;2023-06-26T07:13:57;13.10;;;9.40;;
3647;SDS011;1840;48.892;15.312;2023-06-26T07:16:25;15.97;;;8.30;;
3647;SDS011;1840;48.892;15.312;2023-06-26T07:18:53;14.13;;;8.80;;
3647;SDS011;1840;48.892;15.312;2023-06-26T07:21:21;10.97;;;7.70;;
3647;SDS011;1840;48.892;15.312;2023-06-26T07:23:53;15.37;;;8.10;;
3647;SDS011;1840;48.892;15.312;2023-06-26T07:26:21;10.83;;;7.63;;
3647;SDS011;1840;48.892;15.312;2023-06-26T07:29:09;18.70;;;8.10;;
3647;SDS011;1840;48.892;15.312;2023-06-26T07:31:37;18.63;;;9.07;;
3647;SDS011;1840;48.892;15.312;2023-06-26T07:34:05;12.97;;;8.13;;
3647;SDS011;1840;48.892;15.312;2023-06-26T07:36:33;11.87;;;7.20;;
3647;SDS011;1840;48.892;15.312;2023-06-26T07:39:03;13.70;;;11.67;;
3647;SDS011;1840;48.892;15.312;2023-06-26T07:41:31;21.10;;;8.60;;
3647;SDS011;1840;48.892;15.312;2023-06-26T07:43:59;11.47;;;8.47;;
3647;SDS011;1840;48.892;15.312;2023-06-26T07:46:27;11.47;;;7.83;;
3647;SDS011;1840;48.892;15.312;2023-06-26T07:48:55;13.73;;;8.73;;
3647;SDS011;1840;48.892;15.312;2023-06-26T07:51:23;15.63;;;8.37;;
3647;SDS011;1840;48.892;15.312;2023-06-26T07:53:51;12.13;;;7.53;;
3647;SDS011;1840;48.892;15.312;2023-06-26T07:56:20;10.80;;;7.60;;
3647;SDS011;1840;48.892;15.312;2023-06-26T07:58:48;19.17;;;9.93;;
3647;SDS011;1840;48.892;15.312;2023-06-26T08:01:16;13.93;;;6.50;;
3647;SDS011;1840;48.892;15.312;2023-06-26T08:03:45;11.30;;;5.60;;
3647;SDS011;1840;48.892;15.312;2023-06-26T08:06:13;9.50;;;6.00;;
3647;SDS011;1840;48.892;15.312;2023-06-26T08:08:41;12.53;;;6.17;;
3647;SDS011;1840;48.892;15.312;2023-06-26T08:11:09;11.23;;;7.47;;
3647;SDS011;1840;48.892;15.312;2023-06-26T08:13:39;11.83;;;7.30;;
3647;SDS011;1840;48.892;15.312;2023-06-26T08:16:07;9.80;;;6.97;;
3647;SDS011;1840;48.892;15.312;2023-06-26T08:18:35;13.53;;;6.60;;
3647;SDS011;1840;48.892;15.312;2023-06-26T08:21:03;9.90;;;6.17;;
3647;SDS011;1840;48.892;15.312;2023-06-26T08:23:32;11.23;;;6.50;;
3647;SDS011;1840;48.892;15.312;2023-06-26T08:26:00;10.23;;;6.33;;
3647;SDS011;1840;48.892;15.312;2023-06-26T08:28:29;10.23;;;6.30;;
3647;SDS011;1840;48.892;15.312;2023-06-26T08:30:58;10.87;;;5.60;;
3647;SDS011;1840;48.892;15.312;2023-06-26T08:33:27;9.20;;;5.73;;
3647;SDS011;1840;48.892;15.312;2023-06-26T08:35:55;8.07;;;5.80;;
3647;SDS011;1840;48.892;15.312;2023-06-26T08:38:23;10.37;;;6.00;;
3647;SDS011;1840;48.892;15.312;2023-06-26T08:41:15;8.60;;;5.97;;
3647;SDS011;1840;48.892;15.312;2023-06-26T08:43:47;9.67;;;6.37;;
3647;SDS011;1840;48.892;15.312;2023-06-26T08:46:18;7.60;;;5.27;;
3647;SDS011;1840;48.892;15.312;2023-06-26T08:48:48;12.90;;;5.80;;
3647;SDS011;1840;48.892;15.312;2023-06-26T08:51:25;10.10;;;6.20;;
3647;SDS011;1840;48.892;15.312;2023-06-26T08:53:56;8.60;;;5.87;;
3647;SDS011;1840;48.892;15.312;2023-06-26T08:56:28;7.13;;;4.93;;
3647;SDS011;1840;48.892;15.312;2023-06-26T08:58:59;10.43;;;5.50;;
3647;SDS011;1840;48.892;15.312;2023-06-26T09:01:29;8.93;;;5.10;;
3647;SDS011;1840;48.892;15.312;2023-06-26T09:03:58;8.67;;;5.90;;
3647;SDS011;1840;48.892;15.312;2023-06-26T09:06:27;9.57;;;6.10;;
3647;SDS011;1840;48.892;15.312;2023-06-26T09:08:55;9.70;;;5.33;;
3647;SDS011;1840;48.892;15.312;2023-06-26T09:11:23;11.10;;;5.53;;
3647;SDS011;1840;48.892;15.312;2023-06-26T09:13:51;9.33;;;5.77;;
3647;SDS011;1840;48.892;15.312;2023-06-26T09:16:23;7.43;;;5.30;;
3647;SDS011;1840;48.892;15.312;2023-06-26T09:18:55;8.57;;;5.70;;
3647;SDS011;1840;48.892;15.312;2023-06-26T09:21:23;9.40;;;6.20;;
3647;SDS011;1840;48.892;15.312;2023-06-26T09:23:52;9.10;;;5.40;;
3647;SDS011;1840;48.892;15.312;2023-06-26T09:26:21;12.30;;;5.47;;
3647;SDS011;1840;48.892;15.312;2023-06-26T09:28:49;8.20;;;5.73;;
3647;SDS011;1840;48.892;15.312;2023-06-26T09:31:21;8.47;;;5.80;;
3647;SDS011;1840;48.892;15.312;2023-06-26T09:34:07;7.80;;;5.80;;
3647;SDS011;1840;48.892;15.312;2023-06-26T09:36:35;7.83;;;5.03;;
3647;SDS011;1840;48.892;15.312;2023-06-26T09:39:06;10.50;;;6.40;;
3647;SDS011;1840;48.892;15.312;2023-06-26T09:42:01;8.70;;;5.40;;
3647;SDS011;1840;48.892;15.312;2023-06-26T09:44:57;8.33;;;5.50;;
3647;SDS011;1840;48.892;15.312;2023-06-26T09:47:26;8.97;;;5.43;;
3647;SDS011;1840;48.892;15.312;2023-06-26T09:49:58;9.13;;;5.50;;
3647;SDS011;1840;48.892;15.312;2023-06-26T09:52:51;8.80;;;5.80;;
3647;SDS011;1840;48.892;15.312;2023-06-26T09:55:19;8.77;;;5.47;;
3647;SDS011;1840;48.892;15.312;2023-06-26T09:58:13;9.13;;;5.10;;
3647;SDS011;1840;48.892;15.312;2023-06-26T10:01:07;9.60;;;5.60;;
3647;SDS011;1840;48.892;15.312;2023-06-26T10:03:39;12.03;;;5.90;;
3647;SDS011;1840;48.892;15.312;2023-06-26T10:06:09;10.30;;;5.80;;
3647;SDS011;1840;48.892;15.312;2023-06-26T10:08:42;9.33;;;6.10;;
3647;SDS011;1840;48.892;15.312;2023-06-26T10:11:11;10.00;;;6.50;;
3647;SDS011;1840;48.892;15.312;2023-06-26T10:13:45;7.67;;;5.50;;
3647;SDS011;1840;48.892;15.312;2023-06-26T10:16:21;9.83;;;5.60;;
3647;SDS011;1840;48.892;15.312;2023-06-26T10:18:53;8.40;;;5.90;;
3647;SDS011;1840;48.892;15.312;2023-06-26T10:21:27;11.10;;;6.53;;
3647;SDS011;1840;48.892;15.312;2023-06-26T10:23:58;7.80;;;5.20;;
3647;SDS011;1840;48.892;15.312;2023-06-26T10:26:27;8.40;;;5.43;;
3647;SDS011;1840;48.892;15.312;2023-06-26T10:28:56;9.33;;;5.83;;
3647;SDS011;1840;48.892;15.312;2023-06-26T10:31:25;7.43;;;5.20;;
3647;SDS011;1840;48.892;15.312;2023-06-26T10:33:56;9.17;;;6.37;;
3647;SDS011;1840;48.892;15.312;2023-06-26T10:36:29;9.30;;;6.20;;
3647;SDS011;1840;48.892;15.312;2023-06-26T10:38:59;8.87;;;5.40;;
3647;SDS011;1840;48.892;15.312;2023-06-26T10:41:55;7.70;;;5.47;;
3647;SDS011;1840;48.892;15.312;2023-06-26T10:44:43;12.10;;;6.57;;
3647;SDS011;1840;48.892;15.312;2023-06-26T10:47:35;8.67;;;5.50;;
3647;SDS011;1840;48.892;15.312;2023-06-26T10:50:16;10.77;;;6.10;;
3647;SDS011;1840;48.892;15.312;2023-06-26T10:53:15;10.43;;;5.57;;
3647;SDS011;1840;48.892;15.312;2023-06-26T10:55:55;8.63;;;5.67;;
3647;SDS011;1840;48.892;15.312;2023-06-26T10:58:28;9.70;;;6.27;;
3647;SDS011;1840;48.892;15.312;2023-06-26T11:04:04;9.27;;;5.83;;
3647;SDS011;1840;48.892;15.312;2023-06-26T11:06:33;8.10;;;5.77;;
3647;SDS011;1840;48.892;15.312;2023-06-26T11:09:09;9.13;;;5.87;;
3647;SDS011;1840;48.892;15.312;2023-06-26T11:11:55;7.33;;;5.53;;
3647;SDS011;1840;48.892;15.312;2023-06-26T11:14:26;8.30;;;5.40;;
3647;SDS011;1840;48.892;15.312;2023-06-26T11:16:55;9.93;;;6.53;;
3647;SDS011;1840;48.892;15.312;2023-06-26T11:19:26;13.20;;;7.60;;
3647;SDS011;1840;48.892;15.312;2023-06-26T11:21:59;8.70;;;5.03;;
3647;SDS011;1840;48.892;15.312;2023-06-26T11:24:31;12.53;;;5.70;;
3647;SDS011;1840;48.892;15.312;2023-06-26T11:27:00;8.60;;;5.73;;
3647;SDS011;1840;48.892;15.312;2023-06-26T11:29:30;7.50;;;5.27;;
3647;SDS011;1840;48.892;15.312;2023-06-26T11:32:01;9.80;;;5.63;;
3647;SDS011;1840;48.892;15.312;2023-06-26T11:34:33;8.03;;;4.90;;
3647;SDS011;1840;48.892;15.312;2023-06-26T11:37:04;8.87;;;6.00;;
3647;SDS011;1840;48.892;15.312;2023-06-26T11:39:34;8.30;;;5.70;;
3647;SDS011;1840;48.892;15.312;2023-06-26T11:42:28;8.03;;;4.87;;
3647;SDS011;1840;48.892;15.312;2023-06-26T11:44:56;10.30;;;5.20;;
3647;SDS011;1840;48.892;15.312;2023-06-26T11:47:25;10.13;;;5.93;;
3647;SDS011;1840;48.892;15.312;2023-06-26T11:49:53;8.70;;;6.10;;
3647;SDS011;1840;48.892;15.312;2023-06-26T11:52:22;7.63;;;5.73;;
3647;SDS011;1840;48.892;15.312;2023-06-26T11:54:51;9.60;;;5.90;;
3647;SDS011;1840;48.892;15.312;2023-06-26T11:57:19;8.40;;;5.57;;
3647;SDS011;1840;48.892;15.312;2023-06-26T11:59:49;8.40;;;5.63;;
3647;SDS011;1840;48.892;15.312;2023-06-26T12:02:18;9.40;;;5.23;;
3647;SDS011;1840;48.892;15.312;2023-06-26T12:04:46;7.60;;;5.50;;
3647;SDS011;1840;48.892;15.312;2023-06-26T12:07:15;10.50;;;6.07;;
3647;SDS011;1840;48.892;15.312;2023-06-26T12:09:45;9.43;;;5.90;;
3647;SDS011;1840;48.892;15.312;2023-06-26T12:12:16;8.60;;;4.93;;
3647;SDS011;1840;48.892;15.312;2023-06-26T12:14:45;8.13;;;5.20;;
3647;SDS011;1840;48.892;15.312;2023-06-26T12:17:14;8.23;;;5.17;;
3647;SDS011;1840;48.892;15.312;2023-06-26T12:19:43;7.97;;;5.13;;
3647;SDS011;1840;48.892;15.312;2023-06-26T12:22:14;9.23;;;5.40;;
3647;SDS011;1840;48.892;15.312;2023-06-26T12:24:42;7.17;;;5.13;;
3647;SDS011;1840;48.892;15.312;2023-06-26T12:27:11;7.37;;;5.10;;
3647;SDS011;1840;48.892;15.312;2023-06-26T12:29:46;12.27;;;5.80;;
3647;SDS011;1840;48.892;15.312;2023-06-26T12:32:18;9.73;;;5.90;;
3647;SDS011;1840;48.892;15.312;2023-06-26T12:34:47;8.10;;;4.77;;
3647;SDS011;1840;48.892;15.312;2023-06-26T12:37:17;9.00;;;5.00;;
3647;SDS011;1840;48.892;15.312;2023-06-26T12:39:46;7.90;;;5.50;;
3647;SDS011;1840;48.892;15.312;2023-06-26T12:42:15;7.83;;;4.70;;
3647;SDS011;1840;48.892;15.312;2023-06-26T12:44:46;7.03;;;4.60;;
3647;SDS011;1840;48.892;15.312;2023-06-26T12:47:14;8.30;;;5.10;;
3647;SDS011;1840;48.892;15.312;2023-06-26T12:49:44;7.97;;;5.43;;
3647;SDS011;1840;48.892;15.312;2023-06-26T12:52:13;7.60;;;5.23;;
3647;SDS011;1840;48.892;15.312;2023-06-26T12:54:43;6.47;;;4.50;;
3647;SDS011;1840;48.892;15.312;2023-06-26T12:57:13;8.70;;;4.40;;
3647;SDS011;1840;48.892;15.312;2023-06-26T12:59:42;6.77;;;5.00;;
3647;SDS011;1840;48.892;15.312;2023-06-26T13:02:12;8.87;;;5.03;;
3647;SDS011;1840;48.892;15.312;2023-06-26T13:04:40;8.47;;;5.50;;
3647;SDS011;1840;48.892;15.312;2023-06-26T13:07:10;7.93;;;5.10;;
3647;SDS011;1840;48.892;15.312;2023-06-26T13:09:40;8.23;;;5.83;;
3647;SDS011;1840;48.892;15.312;2023-06-26T13:12:08;6.97;;;4.70;;
3647;SDS011;1840;48.892;15.312;2023-06-26T13:14:36;7.17;;;4.67;;
3647;SDS011;1840;48.892;15.312;2023-06-26T13:17:05;7.53;;;5.23;;
3647;SDS011;1840;48.892;15.312;2023-06-26T13:19:37;9.80;;;5.10;;
3647;SDS011;1840;48.892;15.312;2023-06-26T13:22:05;7.10;;;4.90;;
3647;SDS011;1840;48.892;15.312;2023-06-26T13:24:33;10.43;;;6.37;;
3647;SDS011;1840;48.892;15.312;2023-06-26T13:27:01;7.43;;;5.20;;
3647;SDS011;1840;48.892;15.312;2023-06-26T13:29:29;6.37;;;4.70;;
3647;SDS011;1840;48.892;15.312;2023-06-26T13:31:58;7.43;;;5.37;;
3647;SDS011;1840;48.892;15.312;2023-06-26T13:34:27;7.73;;;5.33;;
3647;SDS011;1840;48.892;15.312;2023-06-26T13:36:57;6.60;;;4.90;;
3647;SDS011;1840;48.892;15.312;2023-06-26T13:39:26;11.20;;;5.40;;
3647;SDS011;1840;48.892;15.312;2023-06-26T13:41:54;7.73;;;5.00;;
3647;SDS011;1840;48.892;15.312;2023-06-26T13:44:23;8.43;;;5.13;;
3647;SDS011;1840;48.892;15.312;2023-06-26T13:47:04;8.10;;;5.40;;
3647;SDS011;1840;48.892;15.312;2023-06-26T13:49:35;11.60;;;4.83;;
3647;SDS011;1840;48.892;15.312;2023-06-26T13:52:05;7.10;;;4.90;;
3647;SDS011;1840;48.892;15.312;2023-06-26T13:54:35;6.60;;;4.50;;
3647;SDS011;1840;48.892;15.312;2023-06-26T13:57:03;6.07;;;4.40;;
3647;SDS011;1840;48.892;15.312;2023-06-26T13:59:32;8.37;;;5.67;;
3647;SDS011;1840;48.892;15.312;2023-06-26T14:02:01;7.20;;;4.47;;
3647;SDS011;1840;48.892;15.312;2023-06-26T14:04:29;11.53;;;5.30;;
3647;SDS011;1840;48.892;15.312;2023-06-26T14:06:57;7.87;;;5.63;;
3647;SDS011;1840;48.892;15.312;2023-06-26T14:09:27;6.77;;;4.63;;
3647;SDS011;1840;48.892;15.312;2023-06-26T14:11:55;13.80;;;5.73;;
3647;SDS011;1840;48.892;15.312;2023-06-26T14:14:23;7.27;;;5.10;;
3647;SDS011;1840;48.892;15.312;2023-06-26T14:16:53;8.27;;;5.57;;
3647;SDS011;1840;48.892;15.312;2023-06-26T14:19:21;9.53;;;5.40;;
3647;SDS011;1840;48.892;15.312;2023-06-26T14:21:49;11.10;;;5.17;;
3647;SDS011;1840;48.892;15.312;2023-06-26T14:24:17;9.43;;;5.10;;
3647;SDS011;1840;48.892;15.312;2023-06-26T14:26:47;7.57;;;5.27;;
3647;SDS011;1840;48.892;15.312;2023-06-26T14:29:15;8.37;;;5.50;;
3647;SDS011;1840;48.892;15.312;2023-06-26T14:31:43;9.20;;;5.00;;
3647;SDS011;1840;48.892;15.312;2023-06-26T14:34:15;9.00;;;4.83;;
3647;SDS011;1840;48.892;15.312;2023-06-26T14:36:44;6.60;;;4.90;;
3647;SDS011;1840;48.892;15.312;2023-06-26T14:39:12;9.07;;;5.30;;
3647;SDS011;1840;48.892;15.312;2023-06-26T14:42:06;7.73;;;5.00;;
3647;SDS011;1840;48.892;15.312;2023-06-26T14:44:39;6.77;;;4.77;;
3647;SDS011;1840;48.892;15.312;2023-06-26T14:47:07;12.27;;;4.27;;
3647;SDS011;1840;48.892;15.312;2023-06-26T14:50:00;8.83;;;5.10;;
3647;SDS011;1840;48.892;15.312;2023-06-26T14:52:28;8.03;;;5.87;;
3647;SDS011;1840;48.892;15.312;2023-06-26T14:54:56;7.20;;;5.10;;
3647;SDS011;1840;48.892;15.312;2023-06-26T14:57:27;7.27;;;5.60;;
3647;SDS011;1840;48.892;15.312;2023-06-26T14:59:55;9.83;;;5.50;;
3647;SDS011;1840;48.892;15.312;2023-06-26T15:02:23;13.67;;;5.47;;
3647;SDS011;1840;48.892;15.312;2023-06-26T15:04:51;8.03;;;5.57;;
3647;SDS011;1840;48.892;15.312;2023-06-26T15:07:20;7.13;;;4.80;;
3647;SDS011;1840;48.892;15.312;2023-06-26T15:09:48;6.87;;;4.90;;
3647;SDS011;1840;48.892;15.312;2023-06-26T15:12:16;8.70;;;4.93;;
3647;SDS011;1840;48.892;15.312;2023-06-26T15:14:46;8.70;;;5.47;;